Airfield :
LOGIN :

Register | Disclaimer

   EN    FR    IT 

 










Legend :    VFR   Marginal VFR   IFR   Intensive IFR   Very Intensive IFR
Visi :
Ceiling :
>= 8 km
>= 3000ft
5 to 8 km
1000 to 3000 ft
1500m to 5 km
500 to 1000 ft
800 to 1500m
200 to 500 ft
< 800m
< 200 ft
Symbols :   Thunderstorms  Fog  Heavy snow  Heavy precipitations  Wind > 20 kt
SIGMETs :     Misc.  Thunderstorms  Icing  Turbulence  Mountain Waves  Volcanic Ashes







- Airport Elevation : 876 ft
- IATA code : MBX


LJMB - Maribor

CURRENT METAR :
  • 210900Z 18006KT 140V210 CAVOK 15/05 Q1027

EXPIRED METARs :
  • 210830Z 17004KT 120V200 CAVOK 13/06 Q1027
  • 210800Z VRB01KT CAVOK 12/07 Q1027
  • 210730Z 13001KT CAVOK 11/07 Q1027
  • 210700Z VRB01KT CAVOK 10/06 Q1027
  • 210630Z VRB01KT CAVOK 08/06 Q1027

TAF TAF LJMB
Valid from the 21 at 09:00 until the 22 at 09:00 UTC


210800Z 2109/2209 36003KT CAVOK
BECMG 2109/2110 18005KT
TEMPO 2111/2117 19010KT
BECMG 2119/2121 VRB02KT
No reported NOTAMs for that airfield.



MET'MAP, your aeronautical weather chart ! - Copyright ORBIFLY December 2007 - Disclaimer

ORBIFLY MET'MAP TEAM :

Programming & Development : Alexandra Zaïnal
Concept & Development : Baudouin d'Aumeries
Co-Development & Prog : Marc-Olivier Méhu
Technical & hardware support : Manuel Goepfert

Contact : metmap@orbifly.com




SOURCES & CREDITS :

   NOAA